createdAt,value
2018-03-27T00:02:23.896Z,40.33
2018-03-27T00:04:52.108Z,39.20
2018-03-27T00:07:21.189Z,40.53
2018-03-27T00:09:49.390Z,40.37
2018-03-27T00:12:18.391Z,40.07
2018-03-27T00:14:46.673Z,42.67
2018-03-27T00:17:14.890Z,45.20
2018-03-27T00:19:43.084Z,41.57
2018-03-27T00:22:11.312Z,41.97
2018-03-27T00:24:42.425Z,41.27
2018-03-27T00:27:10.976Z,44.90
2018-03-27T00:29:51.330Z,47.80
2018-03-27T00:32:31.224Z,44.33
2018-03-27T00:35:11.375Z,40.23
2018-03-27T00:37:52.036Z,42.90
2018-03-27T00:40:32.104Z,45.43
2018-03-27T00:43:01.136Z,45.17
2018-03-27T00:45:29.338Z,44.13
2018-03-27T00:47:57.577Z,45.20
2018-03-27T00:50:25.802Z,49.20
2018-03-27T00:52:54.057Z,51.17
2018-03-27T00:55:22.744Z,47.17
2018-03-27T00:57:50.924Z,48.67
2018-03-27T01:00:19.144Z,45.37
2018-03-27T01:02:47.417Z,50.40
2018-03-27T01:05:15.633Z,47.20
2018-03-27T01:07:43.821Z,43.00
2018-03-27T01:10:12.076Z,47.60
2018-03-27T01:12:40.422Z,45.10
2018-03-27T01:15:08.655Z,42.73
2018-03-27T01:17:36.836Z,42.77
2018-03-27T01:20:05.805Z,45.27
2018-03-27T01:22:34.050Z,45.17
2018-03-27T01:25:02.285Z,50.97
2018-03-27T01:27:31.257Z,43.57
2018-03-27T01:29:59.472Z,46.37
2018-03-27T01:32:27.697Z,48.57
2018-03-27T01:34:55.902Z,42.77
2018-03-27T01:37:24.876Z,44.80
2018-03-27T01:39:53.136Z,47.20
2018-03-27T01:42:21.412Z,46.77
2018-03-27T01:44:49.640Z,45.57
2018-03-27T01:47:17.860Z,48.07
2018-03-27T01:49:46.110Z,48.87
2018-03-27T01:52:14.318Z,42.50
2018-03-27T01:54:43.875Z,47.90
2018-03-27T01:57:12.118Z,45.47
2018-03-27T01:59:40.369Z,46.73
2018-03-27T02:02:08.598Z,43.40
2018-03-27T02:04:36.804Z,47.23
2018-03-27T02:07:04.997Z,46.43
2018-03-27T02:09:33.239Z,45.47
2018-03-27T02:12:07.113Z,44.33
2018-03-27T02:14:41.904Z,42.77
2018-03-27T02:17:15.771Z,39.80
2018-03-27T02:19:49.697Z,43.77
2018-03-27T02:22:17.970Z,48.00
2018-03-27T02:24:46.207Z,42.80
2018-03-27T02:27:15.244Z,46.43
2018-03-27T02:29:43.540Z,47.40
2018-03-27T02:32:11.746Z,45.53
2018-03-27T02:34:40.070Z,43.73
2018-03-27T02:37:08.254Z,45.13
2018-03-27T02:39:36.453Z,44.17
2018-03-27T02:42:04.730Z,43.90
2018-03-27T02:44:32.925Z,42.57
2018-03-27T02:47:01.242Z,43.17
2018-03-27T02:49:29.633Z,42.60
2018-03-27T02:51:57.826Z,42.07
2018-03-27T02:54:26.800Z,38.83
2018-03-27T02:56:56.332Z,44.80
2018-03-27T02:59:24.692Z,45.97
2018-03-27T03:01:53.629Z,38.07
2018-03-27T03:04:22.778Z,47.20
2018-03-27T03:06:50.981Z,46.57
2018-03-27T03:09:19.175Z,45.37
2018-03-27T03:11:48.165Z,46.53
2018-03-27T03:14:16.404Z,44.77
2018-03-27T03:16:44.596Z,46.73
2018-03-27T03:19:13.772Z,46.20
2018-03-27T03:21:42.048Z,43.30
2018-03-27T03:24:11.054Z,42.30
2018-03-27T03:26:39.261Z,49.20
2018-03-27T03:29:08.258Z,44.73
2018-03-27T03:31:37.214Z,47.80
2018-03-27T03:34:05.459Z,49.77
2018-03-27T03:36:33.731Z,44.07
2018-03-27T03:39:02.005Z,44.40
2018-03-27T03:41:30.292Z,48.10
2018-03-27T03:43:58.489Z,53.97
2018-03-27T03:46:26.729Z,46.10
2018-03-27T03:48:55.106Z,48.27
2018-03-27T03:51:23.322Z,44.67
2018-03-27T03:53:51.592Z,45.33
2018-03-27T03:56:20.075Z,43.57
2018-03-27T03:58:48.484Z,46.63
2018-03-27T04:01:16.800Z,52.53
2018-03-27T04:03:45.234Z,52.60
2018-03-27T04:06:13.433Z,45.57
2018-03-27T04:08:42.443Z,48.53
2018-03-27T04:11:10.717Z,47.07
2018-03-27T04:13:38.931Z,44.10
2018-03-27T04:16:08.224Z,51.80
2018-03-27T04:18:36.455Z,52.20
2018-03-27T04:21:05.419Z,44.83
2018-03-27T04:23:33.637Z,51.03
2018-03-27T04:26:01.956Z,50.07
2018-03-27T04:28:30.140Z,54.00
2018-03-27T04:30:58.354Z,46.13
2018-03-27T04:33:27.417Z,43.80
2018-03-27T04:35:56.038Z,41.67
2018-03-27T04:38:25.029Z,47.13
2018-03-27T04:40:54.111Z,45.77
2018-03-27T04:43:22.308Z,57.60
2018-03-27T04:45:50.512Z,57.00
2018-03-27T04:48:18.792Z,59.73
2018-03-27T04:50:47.080Z,54.07
2018-03-27T04:53:15.345Z,48.50
2018-03-27T04:55:43.592Z,53.63
2018-03-27T04:58:11.847Z,46.70
2018-03-27T05:00:40.954Z,43.90
2018-03-27T05:03:09.972Z,41.70
2018-03-27T05:05:38.224Z,45.20
2018-03-27T05:08:06.425Z,51.10
2018-03-27T05:10:34.693Z,47.47
2018-03-27T05:13:03.039Z,48.83
2018-03-27T05:15:32.026Z,46.93
2018-03-27T05:18:00.266Z,46.27
2018-03-27T05:20:28.481Z,42.57
2018-03-27T05:22:57.561Z,45.47
2018-03-27T05:25:25.765Z,47.57
2018-03-27T05:27:54.007Z,46.97
2018-03-27T05:30:22.302Z,45.80
2018-03-27T05:32:51.373Z,48.07
2018-03-27T05:35:19.558Z,42.53
2018-03-27T05:37:47.812Z,43.43
2018-03-27T05:40:16.069Z,47.17
2018-03-27T05:42:44.286Z,46.37
2018-03-27T05:45:12.703Z,47.47
2018-03-27T05:47:40.943Z,42.70
2018-03-27T05:50:09.935Z,44.73
2018-03-27T05:52:38.145Z,44.37
2018-03-27T05:55:07.193Z,41.30
2018-03-27T05:57:35.372Z,45.77
2018-03-27T06:00:03.612Z,44.83
2018-03-27T06:05:09.549Z,43.90
2018-03-27T06:07:37.749Z,40.87
2018-03-27T06:10:06.717Z,45.80
2018-03-27T06:12:35.825Z,44.37
2018-03-27T06:15:04.081Z,45.57
2018-03-27T06:17:33.126Z,51.03
2018-03-27T06:20:01.379Z,43.37
2018-03-27T06:22:29.744Z,52.37
2018-03-27T06:24:58.713Z,49.70
2018-03-27T06:27:27.024Z,51.80
2018-03-27T06:29:55.197Z,46.90
2018-03-27T06:32:23.441Z,55.40
2018-03-27T06:34:51.645Z,56.67
2018-03-27T06:37:19.950Z,50.03
2018-03-27T06:39:48.446Z,57.00
2018-03-27T06:42:16.689Z,62.97
2018-03-27T06:44:45.097Z,65.43
2018-03-27T06:47:14.251Z,70.33
2018-03-27T06:49:42.495Z,62.90
2018-03-27T06:52:10.860Z,70.90
2018-03-27T06:54:39.154Z,69.13
2018-03-27T06:57:07.349Z,63.53
2018-03-27T06:59:36.369Z,74.10
2018-03-27T07:02:04.596Z,81.57
2018-03-27T07:04:32.965Z,75.30
2018-03-27T07:07:01.218Z,70.80
2018-03-27T07:09:29.452Z,68.17
2018-03-27T07:11:57.649Z,70.53
2018-03-27T07:14:26.649Z,73.60
2018-03-27T07:16:55.582Z,65.93
2018-03-27T07:19:23.804Z,63.27
2018-03-27T07:21:52.160Z,59.07
2018-03-27T07:24:21.203Z,65.80
2018-03-27T07:26:49.460Z,60.20
2018-03-27T07:29:17.655Z,62.10
2018-03-27T07:31:45.869Z,57.90
2018-03-27T07:34:14.141Z,64.33
2018-03-27T07:36:42.492Z,62.00
2018-03-27T07:39:10.701Z,63.47
2018-03-27T07:41:38.975Z,58.80
2018-03-27T07:44:07.233Z,64.50
2018-03-27T07:46:35.513Z,59.40
2018-03-27T07:49:03.714Z,59.10
2018-03-27T07:51:31.941Z,57.83
2018-03-27T07:54:00.229Z,67.40
2018-03-27T07:56:28.423Z,55.87
2018-03-27T07:58:56.649Z,61.17
2018-03-27T08:01:24.843Z,55.37
2018-03-27T08:03:53.048Z,57.60
2018-03-27T08:06:21.476Z,60.77
2018-03-27T08:08:49.794Z,63.00
2018-03-27T08:11:18.085Z,61.63
2018-03-27T08:13:46.301Z,59.60
2018-03-27T08:16:14.496Z,61.23
2018-03-27T08:18:42.705Z,53.77
2018-03-27T08:21:10.931Z,55.03
2018-03-27T08:23:39.133Z,58.20
2018-03-27T08:26:07.333Z,57.50
2018-03-27T08:28:35.621Z,56.47
2018-03-27T08:31:03.832Z,65.17
2018-03-27T08:33:32.034Z,62.53
2018-03-27T08:36:01.041Z,57.30
2018-03-27T08:38:29.505Z,56.67
2018-03-27T08:40:57.762Z,58.63
2018-03-27T08:43:26.079Z,52.53
2018-03-27T08:45:54.404Z,58.00
2018-03-27T08:48:22.584Z,52.97
2018-03-27T08:50:50.856Z,60.27
2018-03-27T08:53:19.072Z,54.10
2018-03-27T08:55:47.352Z,55.30
2018-03-27T08:58:15.586Z,56.07
2018-03-27T09:00:43.915Z,50.63
2018-03-27T09:03:12.076Z,46.43
2018-03-27T09:05:41.569Z,50.90
2018-03-27T09:08:10.023Z,50.10
2018-03-27T09:10:38.387Z,51.83
2018-03-27T09:13:07.483Z,42.17
2018-03-27T09:15:36.451Z,32.80
2018-03-27T09:18:04.677Z,30.90
2018-03-27T09:20:34.189Z,33.17
2018-03-27T09:23:02.432Z,38.10
2018-03-27T09:25:31.426Z,39.07
2018-03-27T09:28:01.598Z,31.40
2018-03-27T09:30:29.828Z,30.57
2018-03-27T09:32:59.330Z,29.27
2018-03-27T09:35:28.404Z,28.23
2018-03-27T09:37:56.621Z,27.13
2018-03-27T09:40:24.826Z,26.63
2018-03-27T09:42:53.057Z,24.33
2018-03-27T09:45:21.339Z,25.90
2018-03-27T09:47:49.537Z,25.83
2018-03-27T09:50:17.846Z,29.77
2018-03-27T09:52:46.057Z,27.47
2018-03-27T09:55:14.260Z,33.07
2018-03-27T09:57:42.681Z,29.17
2018-03-27T10:00:10.869Z,30.17
2018-03-27T10:02:39.121Z,30.60
2018-03-27T10:05:07.380Z,33.80
2018-03-27T10:07:35.616Z,31.90
2018-03-27T10:10:04.638Z,32.13
2018-03-27T10:12:32.876Z,35.10
2018-03-27T10:15:01.873Z,30.53
2018-03-27T10:17:30.844Z,30.03
2018-03-27T10:19:59.208Z,29.80
2018-03-27T10:22:27.456Z,32.27
2018-03-27T10:24:56.296Z,30.87
2018-03-27T10:27:25.292Z,31.03
2018-03-27T10:29:54.447Z,29.43
2018-03-27T10:32:22.697Z,28.80
2018-03-27T10:34:51.038Z,27.23
2018-03-27T10:37:20.017Z,27.37
2018-03-27T10:39:48.255Z,27.10
2018-03-27T10:42:16.521Z,27.37
2018-03-27T10:44:44.747Z,24.43
2018-03-27T10:47:12.983Z,25.13
2018-03-27T10:49:41.232Z,23.77
2018-03-27T10:52:09.448Z,21.80
2018-03-27T10:54:37.653Z,21.50
2018-03-27T10:57:06.686Z,22.57
2018-03-27T10:59:34.935Z,22.53
2018-03-27T11:02:03.936Z,25.57
2018-03-27T11:04:32.349Z,24.90
2018-03-27T11:07:00.577Z,23.40
2018-03-27T11:09:29.581Z,23.43
2018-03-27T11:11:57.962Z,25.03
2018-03-27T11:14:27.007Z,24.67
2018-03-27T11:16:55.254Z,27.43
2018-03-27T11:19:24.890Z,26.30
2018-03-27T11:21:53.133Z,23.67
2018-03-27T11:24:21.383Z,27.40
2018-03-27T11:26:50.467Z,25.43
2018-03-27T11:29:18.834Z,23.70
2018-03-27T11:31:47.336Z,26.03
2018-03-27T11:34:16.472Z,26.70
2018-03-27T11:36:44.734Z,20.87
2018-03-27T11:39:13.056Z,23.33
2018-03-27T11:41:41.389Z,19.90
2018-03-27T11:44:09.655Z,18.00
2018-03-27T11:46:38.912Z,17.00
2018-03-27T11:49:07.196Z,15.50
2018-03-27T11:51:35.404Z,15.67
2018-03-27T11:54:04.382Z,16.20
2018-03-27T11:56:32.648Z,14.63
2018-03-27T11:59:00.917Z,17.00
2018-03-27T12:01:29.907Z,11.57
2018-03-27T12:03:58.184Z,15.33
2018-03-27T12:06:26.395Z,14.63
2018-03-27T12:08:55.474Z,15.13
2018-03-27T12:11:23.918Z,14.87
2018-03-27T12:13:52.180Z,12.50
2018-03-27T12:16:20.393Z,14.27
2018-03-27T12:18:48.697Z,14.40
2018-03-27T12:21:17.025Z,13.93
2018-03-27T12:23:45.256Z,13.60
2018-03-27T12:26:13.506Z,14.40
2018-03-27T12:28:41.702Z,15.30
2018-03-27T12:31:09.965Z,15.60
2018-03-27T12:33:38.199Z,16.77
2018-03-27T12:36:06.499Z,17.30
2018-03-27T12:38:34.686Z,16.40
2018-03-27T12:41:02.910Z,16.63
2018-03-27T12:43:31.885Z,17.63
2018-03-27T12:46:01.028Z,18.33
2018-03-27T12:48:29.316Z,17.93
2018-03-27T12:50:57.568Z,18.83
2018-03-27T12:53:25.877Z,16.47
2018-03-27T12:55:54.136Z,16.93
2018-03-27T12:58:22.336Z,16.13
2018-03-27T13:00:50.597Z,14.90
2018-03-27T13:03:18.804Z,14.80
2018-03-27T13:05:47.272Z,14.73
2018-03-27T13:08:15.510Z,14.70
2018-03-27T13:10:43.728Z,13.13
2018-03-27T13:13:11.990Z,13.40
2018-03-27T13:15:40.242Z,13.73
2018-03-27T13:18:08.544Z,14.47
2018-03-27T13:20:36.830Z,15.07
2018-03-27T13:23:04.974Z,14.73
2018-03-27T13:25:33.236Z,15.07
2018-03-27T13:28:01.505Z,14.30
2018-03-27T13:30:29.749Z,14.43
2018-03-27T13:32:58.171Z,16.90
2018-03-27T13:35:26.457Z,15.23
2018-03-27T13:37:54.723Z,14.17
2018-03-27T13:40:23.036Z,14.23
2018-03-27T13:42:51.264Z,16.13
2018-03-27T13:45:19.462Z,16.53
2018-03-27T13:47:47.703Z,16.77
2018-03-27T13:50:16.691Z,16.23
2018-03-27T13:52:45.653Z,18.07
2018-03-27T13:55:13.882Z,16.83
2018-03-27T13:57:42.080Z,18.47
2018-03-27T14:00:10.310Z,17.67
2018-03-27T14:02:39.355Z,19.33
2018-03-27T14:05:07.585Z,18.10
2018-03-27T14:07:36.617Z,17.17
2018-03-27T14:10:05.062Z,17.10
2018-03-27T14:12:33.403Z,17.30
2018-03-27T14:15:01.985Z,18.77
2018-03-27T14:17:30.185Z,19.77
2018-03-27T14:19:59.235Z,21.70
2018-03-27T14:22:27.402Z,21.67
2018-03-27T14:24:55.684Z,20.07
2018-03-27T14:27:24.080Z,20.10
2018-03-27T14:29:52.297Z,19.23
2018-03-27T14:32:20.511Z,20.37
2018-03-27T14:34:48.725Z,17.57
2018-03-27T14:37:16.907Z,16.63
2018-03-27T14:39:46.105Z,17.03
2018-03-27T14:42:14.350Z,17.33
2018-03-27T14:44:42.609Z,17.43
2018-03-27T14:47:10.881Z,16.10
2018-03-27T14:49:39.098Z,15.47
2018-03-27T14:52:07.381Z,15.73
2018-03-27T14:54:36.528Z,17.20
2018-03-27T14:57:04.892Z,16.40
2018-03-27T14:59:33.902Z,16.33
2018-03-27T15:02:02.218Z,19.37
2018-03-27T15:04:30.508Z,16.90
2018-03-27T15:06:59.510Z,19.07
2018-03-27T15:09:28.947Z,16.97
2018-03-27T15:11:57.199Z,18.23
2018-03-27T15:14:26.196Z,19.73
2018-03-27T15:16:54.452Z,19.13
2018-03-27T15:19:23.431Z,18.10
2018-03-27T15:21:51.657Z,18.67
2018-03-27T15:24:19.905Z,18.07
2018-03-27T15:26:48.113Z,17.47
2018-03-27T15:29:16.323Z,18.00
2018-03-27T15:31:44.626Z,17.67
2018-03-27T15:34:13.596Z,19.47
2018-03-27T15:36:41.806Z,18.60
2018-03-27T15:39:10.044Z,17.50
2018-03-27T15:41:38.279Z,19.23
2018-03-27T15:44:06.500Z,19.67
2018-03-27T15:46:34.718Z,19.97
2018-03-27T15:49:02.920Z,20.73
2018-03-27T15:51:31.178Z,21.53
2018-03-27T15:53:59.431Z,21.27
2018-03-27T15:56:27.629Z,21.53
2018-03-27T15:58:55.828Z,21.70
2018-03-27T16:01:24.134Z,21.93
2018-03-27T16:03:53.137Z,20.40
2018-03-27T16:06:21.312Z,20.73
2018-03-27T16:08:50.381Z,20.43
2018-03-27T16:11:18.570Z,22.13
2018-03-27T16:13:46.777Z,21.43
2018-03-27T16:16:15.049Z,21.53
2018-03-27T16:18:43.255Z,21.00
2018-03-27T16:21:11.457Z,22.30
2018-03-27T16:23:40.679Z,26.50
2018-03-27T16:26:09.648Z,28.23
2018-03-27T16:28:37.853Z,23.43
2018-03-27T16:31:06.920Z,24.63
2018-03-27T16:33:35.117Z,22.90
2018-03-27T16:36:04.131Z,22.77
2018-03-27T16:38:32.357Z,21.73
2018-03-27T16:41:00.662Z,23.57
2018-03-27T16:43:29.625Z,23.60
2018-03-27T16:45:57.842Z,21.60
2018-03-27T16:48:26.937Z,22.10
2018-03-27T16:50:55.984Z,21.20
2018-03-27T16:53:24.291Z,21.40
2018-03-27T16:55:52.493Z,20.43
2018-03-27T16:58:20.708Z,23.00
2018-03-27T17:00:49.017Z,21.83
2018-03-27T17:03:17.227Z,22.20
2018-03-27T17:05:45.474Z,21.47
2018-03-27T17:08:14.527Z,23.87
2018-03-27T17:10:42.741Z,23.67
2018-03-27T17:13:10.925Z,26.07
2018-03-27T17:15:39.923Z,24.87
2018-03-27T17:18:09.129Z,24.47
2018-03-27T17:20:37.326Z,24.10
2018-03-27T17:23:05.828Z,24.23
2018-03-27T17:25:34.029Z,23.53
2018-03-27T17:28:02.225Z,21.80
2018-03-27T17:30:31.208Z,23.67
2018-03-27T17:33:00.213Z,24.37
2018-03-27T17:35:29.185Z,23.97
2018-03-27T17:37:57.592Z,23.83
2018-03-27T17:40:25.832Z,23.00
2018-03-27T17:42:54.127Z,24.23
2018-03-27T17:45:22.440Z,24.60
2018-03-27T17:47:50.662Z,25.57
2018-03-27T17:50:18.887Z,23.60
2018-03-27T17:52:47.906Z,26.50
2018-03-27T17:55:16.105Z,24.53
2018-03-27T17:57:44.318Z,26.37
2018-03-27T18:00:12.577Z,23.20
2018-03-27T18:02:41.547Z,26.67
2018-03-27T18:05:09.916Z,26.07
2018-03-27T18:07:38.528Z,24.70
2018-03-27T18:10:07.643Z,24.67
2018-03-27T18:12:36.224Z,27.63
2018-03-27T18:15:05.210Z,30.90
2018-03-27T18:17:34.180Z,25.57
2018-03-27T18:20:03.264Z,26.67
2018-03-27T18:22:31.732Z,26.50
2018-03-27T18:25:00.024Z,29.40
2018-03-27T18:27:28.214Z,26.97
2018-03-27T18:29:57.225Z,25.63
2018-03-27T18:32:26.492Z,28.27
2018-03-27T18:34:54.678Z,26.83
2018-03-27T18:37:22.936Z,27.90
2018-03-27T18:39:51.081Z,26.47
2018-03-27T18:42:19.312Z,26.57
2018-03-27T18:44:47.524Z,29.17
2018-03-27T18:47:15.729Z,27.90
2018-03-27T18:49:43.933Z,25.50
2018-03-27T18:52:12.213Z,26.30
2018-03-27T18:54:41.171Z,26.47
2018-03-27T18:57:09.760Z,26.47
2018-03-27T18:59:38.036Z,27.40
2018-03-27T19:02:06.226Z,27.90
2018-03-27T19:04:34.474Z,27.00
2018-03-27T19:07:02.703Z,27.00
2018-03-27T19:09:31.668Z,26.83
2018-03-27T19:11:59.954Z,27.40
2018-03-27T19:14:28.948Z,25.67
2018-03-27T19:16:57.163Z,25.27
2018-03-27T19:19:25.366Z,25.70
2018-03-27T19:21:53.621Z,26.60
2018-03-27T19:24:21.810Z,25.03
2018-03-27T19:26:49.998Z,30.33
2018-03-27T19:29:18.236Z,26.83
2018-03-27T19:31:46.436Z,25.07
2018-03-27T19:34:14.638Z,25.80
2018-03-27T19:36:42.905Z,25.87
2018-03-27T19:39:11.113Z,27.00
2018-03-27T19:41:40.073Z,26.90
2018-03-27T19:44:08.367Z,26.27
2018-03-27T19:46:36.670Z,26.87
2018-03-27T19:49:05.633Z,27.43
2018-03-27T19:51:33.864Z,28.30
2018-03-27T19:54:02.086Z,25.77
2018-03-27T19:56:30.331Z,26.70
2018-03-27T19:58:58.586Z,28.23
2018-03-27T20:01:26.773Z,27.83
2018-03-27T20:03:55.033Z,27.43
2018-03-27T20:06:23.323Z,28.13
2018-03-27T20:08:51.531Z,28.70
2018-03-27T20:11:19.819Z,30.20
2018-03-27T20:13:48.138Z,26.17
2018-03-27T20:16:16.339Z,28.43
2018-03-27T20:18:44.565Z,25.57
2018-03-27T20:21:13.629Z,27.67
2018-03-27T20:23:41.857Z,29.17
2018-03-27T20:26:10.234Z,28.63
2018-03-27T20:28:39.682Z,27.57
2018-03-27T20:31:07.883Z,26.90
2018-03-27T20:33:36.105Z,27.97
2018-03-27T20:36:04.323Z,26.63
2018-03-27T20:38:32.544Z,25.27
2018-03-27T20:41:00.767Z,26.70
2018-03-27T20:43:29.062Z,28.27
2018-03-27T20:45:58.101Z,27.27
2018-03-27T20:48:26.311Z,26.83
2018-03-27T20:50:54.533Z,28.27
2018-03-27T20:53:23.018Z,29.00
2018-03-27T20:55:51.260Z,26.50
2018-03-27T20:58:19.513Z,26.47
2018-03-27T21:00:47.713Z,27.97
2018-03-27T21:03:16.748Z,26.83
2018-03-27T21:05:46.237Z,25.83
2018-03-27T21:08:14.437Z,32.63
2018-03-27T21:10:42.645Z,27.73
2018-03-27T21:13:11.628Z,29.23
2018-03-27T21:15:39.821Z,27.17
2018-03-27T21:18:08.011Z,29.00
2018-03-27T21:20:37.005Z,29.53
2018-03-27T21:23:05.965Z,28.20
2018-03-27T21:25:34.160Z,27.00
2018-03-27T21:28:03.473Z,27.77
2018-03-27T21:30:32.644Z,26.40
2018-03-27T21:35:35.376Z,25.10
2018-03-27T21:38:03.623Z,26.33
2018-03-27T21:40:31.809Z,26.87
2018-03-27T21:43:00.813Z,27.03
2018-03-27T21:45:29.817Z,28.97
2018-03-27T21:47:58.020Z,27.10
2018-03-27T21:50:26.358Z,26.23
2018-03-27T21:52:55.372Z,29.87
2018-03-27T21:55:24.586Z,26.87
2018-03-27T21:57:53.766Z,29.33
2018-03-27T22:00:21.993Z,26.73
2018-03-27T22:02:50.208Z,26.80
2018-03-27T22:05:19.772Z,28.17
2018-03-27T22:07:48.052Z,27.67
2018-03-27T22:10:16.391Z,26.70
2018-03-27T22:12:44.680Z,26.70
2018-03-27T22:15:12.886Z,27.20
2018-03-27T22:17:41.077Z,29.77
2018-03-27T22:20:10.049Z,26.47
2018-03-27T22:22:38.275Z,29.40
2018-03-27T22:25:06.469Z,28.60
2018-03-27T22:27:34.716Z,29.93
2018-03-27T22:30:02.903Z,27.80
2018-03-27T22:32:31.112Z,29.43
2018-03-27T22:34:59.542Z,29.73
2018-03-27T22:37:28.532Z,28.70
2018-03-27T22:39:57.492Z,30.73
2018-03-27T22:42:25.729Z,29.93
2018-03-27T22:44:53.926Z,31.63
2018-03-27T22:47:22.139Z,30.73
2018-03-27T22:49:51.207Z,32.47
2018-03-27T22:52:19.417Z,31.07
2018-03-27T22:54:48.991Z,32.27
2018-03-27T22:57:17.258Z,34.60
2018-03-27T22:59:46.381Z,34.87
2018-03-27T23:02:14.620Z,32.10
2018-03-27T23:04:42.813Z,30.63
2018-03-27T23:07:11.055Z,30.07
2018-03-27T23:09:39.705Z,31.57
2018-03-27T23:12:08.716Z,32.13
2018-03-27T23:14:36.957Z,32.67
2018-03-27T23:17:05.229Z,32.77
2018-03-27T23:19:33.541Z,35.77
2018-03-27T23:22:01.750Z,31.83
2018-03-27T23:24:30.141Z,34.60
2018-03-27T23:26:58.826Z,34.87
2018-03-27T23:29:27.042Z,36.07
2018-03-27T23:31:55.997Z,36.47
2018-03-27T23:34:24.252Z,33.07
2018-03-27T23:36:52.501Z,34.53
2018-03-27T23:39:21.457Z,37.57
2018-03-27T23:41:49.791Z,37.27
2018-03-27T23:44:17.979Z,33.47
2018-03-27T23:46:46.323Z,36.40
2018-03-27T23:49:14.773Z,35.17
2018-03-27T23:51:42.993Z,37.40
2018-03-27T23:54:11.201Z,38.03
2018-03-27T23:56:39.502Z,37.67
2018-03-27T23:59:08.561Z,41.03
